Oconto, WI

8:14 AM CST on December 12, 2019 (GMT -0600)
Oconto Municipal

Weather History for KOCQ - October, 2019

Change the Weather History Date:

Sunday, October 6, 2019

  Actual Average Record
Temperature  
Mean Temperature 56 °F -  
Max Temperature 66 °F 61 °F 69 °F (2015)
Min Temperature 46 °F 38 °F 34 °F (2014)
Degree Days  
Heating Degree Days 10    
Growing Degree Days 6 (Base 50)    
Moisture  
Dew Point 43 °F    
Average Humidity 64    
Maximum Humidity 92    
Minimum Humidity 35    
Precipitation  
Precipitation 0.00 in - - ()
Sea Level Pressure  
Sea Level Pressure 29.89 in    
Wind  
Wind Speed 11 mph (WSW)    
Max Wind Speed 23 mph    
Max Gust Speed 31 mph    
Visibility 10 miles    
Events      
Averages and records for this station are not official NWS values.
T = Trace of Precipitation, MM = Missing Value Source: NWS Daily Summary

Daily Weather History Graph

Daily Weather History Graph

Search for Another Location

Airport or City:

Astronomy

Oct. 06, 2019 Rise Set
Actual Time 6:55 AM CDT 6:23 PM CDT
Civil Twilight 6:26 AM CDT 6:52 PM CDT
Nautical Twilight 5:52 AM CDT 7:26 PM CDT
Astronomical Twilight 5:18 AM CDT 8:00 PM CDT
Moon 3:20 PM CDT (10/6) No Moon Set
Length of Visible Light 12h 26m
Length of Day
11h 27m
First Quarter, 60% of the Moon is Illuminated
Oct 6
First Quarter
Oct 13
Full
Oct 21
Last Quarter
Oct 27
New
Nov 4
First Quarter

Hourly Weather History & Observations

Time (CDT) Temp. Dew Point Humidity Pressure Visibility Wind Dir Wind Speed Gust Speed Precip Events Conditions
12:15 AM 55.0 °F 52.7 °F 92% 29.75 in 10.0 mi SW 9.2 mph 17.3 mph N/A   Overcast
12:35 AM 55.4 °F 52.7 °F 91% 29.75 in 10.0 mi SW 10.4 mph 17.3 mph N/A   Overcast
12:55 AM 55.4 °F 51.8 °F 88% 29.75 in 10.0 mi SW 10.4 mph - N/A   Overcast
1:15 AM 54.7 °F 50.7 °F 86% 29.76 in 10.0 mi WSW 13.8 mph 18.4 mph N/A   Overcast
1:35 AM 54.5 °F 50.0 °F 85% 29.76 in 10.0 mi WSW 11.5 mph 19.6 mph N/A   Overcast
1:55 AM 53.6 °F 48.7 °F 84% 29.77 in 10.0 mi WSW 10.4 mph 20.7 mph N/A   Mostly Cloudy
2:15 AM 53.6 °F 48.4 °F 82% 29.78 in 10.0 mi WSW 13.8 mph 20.7 mph N/A   Overcast
2:35 AM 53.4 °F 47.8 °F 81% 29.78 in 10.0 mi SW 13.8 mph 23.0 mph N/A   Overcast
2:55 AM 53.2 °F 47.1 °F 80% 29.78 in 10.0 mi WSW 13.8 mph 23.0 mph N/A   Overcast
3:15 AM 52.7 °F 46.4 °F 79% 29.78 in 10.0 mi WSW 11.5 mph 20.7 mph N/A   Overcast
3:35 AM 52.3 °F 45.9 °F 79% 29.79 in 10.0 mi West 13.8 mph 23.0 mph N/A   Overcast
3:55 AM 51.3 °F 43.0 °F 73% 29.81 in 10.0 mi West 13.8 mph 25.3 mph N/A   Overcast
4:15 AM 50.7 °F 42.3 °F 73% 29.81 in 10.0 mi West 16.1 mph 24.2 mph N/A   Mostly Cloudy
4:55 AM 48.9 °F 42.1 °F 77% 29.83 in 10.0 mi West 10.4 mph 17.3 mph N/A   Clear
5:15 AM 48.2 °F 42.1 °F 79% 29.83 in 10.0 mi WSW 6.9 mph - N/A   Clear
5:35 AM 47.5 °F 42.4 °F 83% 29.84 in 10.0 mi WSW 6.9 mph - N/A   Clear
5:55 AM 47.1 °F 42.8 °F 85% 29.85 in 10.0 mi WSW 8.1 mph - N/A   Clear
6:15 AM 46.8 °F 43.2 °F 87% 29.85 in 10.0 mi WSW 8.1 mph - N/A   Clear
6:35 AM 46.9 °F 43.5 °F 88% 29.86 in 10.0 mi WSW 10.4 mph - N/A   Clear
6:55 AM 47.3 °F 43.7 °F 87% 29.87 in 10.0 mi WSW 10.4 mph 17.3 mph N/A   Clear
7:15 AM 47.7 °F 43.7 °F 86% 29.87 in 10.0 mi WSW 9.2 mph - N/A   Clear
7:35 AM 47.3 °F 43.7 °F 87% 29.89 in 10.0 mi WSW 10.4 mph - N/A   Clear
7:55 AM 48.0 °F 44.1 °F 86% 29.89 in 10.0 mi WSW 6.9 mph - N/A   Clear
8:15 AM 49.1 °F 44.6 °F 84% 29.90 in 10.0 mi SW 11.5 mph - N/A   Clear
8:35 AM 50.5 °F 45.1 °F 82% 29.90 in 10.0 mi WSW 9.2 mph - N/A   Clear
8:55 AM 52.3 °F 45.5 °F 78% 29.91 in 10.0 mi SW 12.7 mph 17.3 mph N/A   Clear
9:15 AM 52.7 °F 45.3 °F 76% 29.91 in 10.0 mi WSW 10.4 mph 16.1 mph N/A   Clear
9:35 AM 54.0 °F 45.7 °F 74% 29.92 in 10.0 mi WSW 11.5 mph 20.7 mph N/A   Clear
9:55 AM 54.7 °F 45.7 °F 72% 29.92 in 10.0 mi WSW 15.0 mph 19.6 mph N/A   Clear
10:15 AM 55.8 °F 45.5 °F 68% 29.93 in 10.0 mi WSW 15.0 mph 21.9 mph N/A   Clear
10:35 AM 56.7 °F 45.0 °F 65% 29.93 in 10.0 mi WSW 11.5 mph 21.9 mph N/A   Clear
10:55 AM 57.4 °F 45.3 °F 64% 29.93 in 10.0 mi WSW 13.8 mph 21.9 mph N/A   Clear
11:15 AM 59.0 °F 45.7 °F 61% 29.93 in 10.0 mi WSW 13.8 mph 20.7 mph N/A   Clear
11:35 AM 60.1 °F 45.1 °F 58% 29.93 in 10.0 mi SW 10.4 mph 18.4 mph N/A   Clear
11:55 AM 61.3 °F 44.8 °F 55% 29.93 in 10.0 mi WSW 16.1 mph 23.0 mph N/A   Clear
12:15 PM 62.4 °F 43.9 °F 51% 29.93 in 10.0 mi SW 16.1 mph 23.0 mph N/A   Clear
12:35 PM 63.1 °F 43.7 °F 49% 29.93 in 10.0 mi SW 19.6 mph 27.6 mph N/A   Clear
12:55 PM 63.5 °F 43.7 °F 48% 29.93 in 10.0 mi SW 19.6 mph 26.5 mph N/A   Clear
1:15 PM 64.6 °F 44.2 °F 48% 29.92 in 10.0 mi SW 12.7 mph 24.2 mph N/A   Scattered Clouds
1:35 PM 64.8 °F 43.3 °F 46% 29.91 in 10.0 mi WSW 17.3 mph 26.5 mph N/A   Scattered Clouds
1:55 PM 65.5 °F 37.8 °F 36% 29.91 in 10.0 mi WSW 23.0 mph 29.9 mph N/A   Scattered Clouds
2:15 PM 65.3 °F 38.5 °F 37% 29.90 in 10.0 mi WSW 19.6 mph 31.1 mph N/A   Scattered Clouds
2:35 PM 65.7 °F 39.2 °F 38% 29.90 in 10.0 mi West 17.3 mph 27.6 mph N/A   Scattered Clouds
2:55 PM 63.9 °F 37.0 °F 37% 29.91 in 10.0 mi West 21.9 mph 28.8 mph N/A   Scattered Clouds
3:15 PM 64.0 °F 37.4 °F 37% 29.90 in 10.0 mi WSW 18.4 mph 24.2 mph N/A   Scattered Clouds
3:55 PM 65.5 °F 37.0 °F 35% 29.90 in 10.0 mi West 21.9 mph 31.1 mph N/A   Scattered Clouds
4:15 PM 64.9 °F 37.0 °F 36% 29.90 in 10.0 mi WSW 18.4 mph 25.3 mph N/A   Clear
4:35 PM 64.9 °F 38.1 °F 37% 29.90 in 10.0 mi West 13.8 mph 19.6 mph N/A   Clear
4:55 PM 64.2 °F 38.1 °F 38% 29.90 in 10.0 mi West 12.7 mph - N/A   Clear
5:15 PM 63.7 °F 36.3 °F 36% 29.91 in 10.0 mi West 18.4 mph 27.6 mph N/A   Clear
5:35 PM 62.6 °F 36.7 °F 38% 29.91 in 10.0 mi West 12.7 mph 26.5 mph N/A   Scattered Clouds
5:55 PM 60.8 °F 37.6 °F 42% 29.91 in 10.0 mi WSW 10.4 mph - N/A   Mostly Cloudy
6:15 PM 59.7 °F 38.3 °F 45% 29.92 in 10.0 mi WSW 6.9 mph - N/A   Scattered Clouds
6:35 PM 58.1 °F 38.5 °F 48% 29.92 in 10.0 mi WSW 6.9 mph - N/A   Scattered Clouds
6:55 PM 57.9 °F 38.3 °F 48% 29.92 in 10.0 mi SW 6.9 mph - N/A   Clear
7:15 PM 57.4 °F 38.5 °F 49% 29.93 in 10.0 mi WSW 6.9 mph - N/A   Clear
7:35 PM 57.2 °F 38.7 °F 50% 29.93 in 10.0 mi WSW 6.9 mph - N/A   Scattered Clouds
7:55 PM 57.2 °F 39.0 °F 51% 29.93 in 10.0 mi SW 6.9 mph - N/A   Scattered Clouds
8:15 PM 55.9 °F 39.4 °F 54% 29.94 in 10.0 mi SW 5.8 mph - N/A   Scattered Clouds
8:35 PM 55.6 °F 39.4 °F 55% 29.94 in 10.0 mi SW 4.6 mph - N/A   Clear
8:55 PM 54.7 °F 39.6 °F 57% 29.94 in 10.0 mi SW 5.8 mph - N/A   Clear
9:15 PM 54.1 °F 39.9 °F 59% 29.95 in 10.0 mi Calm Calm - N/A   Scattered Clouds
9:35 PM 54.5 °F 40.3 °F 59% 29.96 in 10.0 mi SSW 3.5 mph - N/A   Overcast
9:55 PM 53.6 °F 40.8 °F 62% 29.97 in 10.0 mi SW 5.8 mph - N/A   Overcast
10:15 PM 52.9 °F 40.8 °F 64% 29.98 in 10.0 mi SW 3.5 mph - N/A   Scattered Clouds
10:35 PM 51.8 °F 41.0 °F 67% 29.98 in 10.0 mi WSW 5.8 mph - N/A   Clear
10:55 PM 51.4 °F 41.0 °F 68% 29.98 in 10.0 mi SW 5.8 mph - N/A   Clear
11:15 PM 50.4 °F 41.0 °F 70% 29.98 in 10.0 mi WSW 5.8 mph - N/A   Clear
11:35 PM 50.5 °F 41.2 °F 70% 29.98 in 10.0 mi SW 6.9 mph - N/A   Clear
11:55 PM 50.9 °F 41.2 °F 69% 29.98 in 10.0 mi WSW 5.8 mph - N/A   Clear